sensor_id;sensor_type;location;lat;lon;timestamp;temperature;humidity
65396;HTU21D;52004;45.136;39.010;2023-05-14T00:02:22;14.28;61.88
65396;HTU21D;52004;45.136;39.010;2023-05-14T00:04:48;14.28;61.89
65396;HTU21D;52004;45.136;39.010;2023-05-14T00:07:14;14.28;61.89
65396;HTU21D;52004;45.136;39.010;2023-05-14T00:09:41;14.27;61.90
65396;HTU21D;52004;45.136;39.010;2023-05-14T00:12:07;14.24;61.94
65396;HTU21D;52004;45.136;39.010;2023-05-14T00:14:32;14.23;61.98
65396;HTU21D;52004;45.136;39.010;2023-05-14T00:16:58;14.22;61.99
65396;HTU21D;52004;45.136;39.010;2023-05-14T00:19:24;14.21;62.02
65396;HTU21D;52004;45.136;39.010;2023-05-14T00:21:50;14.20;62.03
65396;HTU21D;52004;45.136;39.010;2023-05-14T00:24:17;14.19;62.03
65396;HTU21D;52004;45.136;39.010;2023-05-14T00:26:43;14.17;62.06
65396;HTU21D;52004;45.136;39.010;2023-05-14T00:29:09;14.13;62.08
65396;HTU21D;52004;45.136;39.010;2023-05-14T00:31:35;14.11;62.12
65396;HTU21D;52004;45.136;39.010;2023-05-14T00:34:01;14.10;62.15
65396;HTU21D;52004;45.136;39.010;2023-05-14T00:36:27;14.09;62.15
65396;HTU21D;52004;45.136;39.010;2023-05-14T00:38:53;14.08;62.18
65396;HTU21D;52004;45.136;39.010;2023-05-14T00:41:21;14.06;62.20
65396;HTU21D;52004;45.136;39.010;2023-05-14T00:43:47;14.04;62.19
65396;HTU21D;52004;45.136;39.010;2023-05-14T00:46:13;14.03;62.22
65396;HTU21D;52004;45.136;39.010;2023-05-14T00:48:39;14.00;62.24
65396;HTU21D;52004;45.136;39.010;2023-05-14T00:51:05;13.98;62.26
65396;HTU21D;52004;45.136;39.010;2023-05-14T00:53:31;13.96;62.30
65396;HTU21D;52004;45.136;39.010;2023-05-14T00:55:57;13.94;62.31
65396;HTU21D;52004;45.136;39.010;2023-05-14T00:58:23;13.92;62.34
65396;HTU21D;52004;45.136;39.010;2023-05-14T01:00:49;13.90;62.39
65396;HTU21D;52004;45.136;39.010;2023-05-14T01:03:16;13.86;62.41
65396;HTU21D;52004;45.136;39.010;2023-05-14T01:06:00;13.86;62.43
65396;HTU21D;52004;45.136;39.010;2023-05-14T01:08:35;13.85;62.45
65396;HTU21D;52004;45.136;39.010;2023-05-14T01:16:18;13.76;62.56
65396;HTU21D;52004;45.136;39.010;2023-05-14T01:18:45;13.74;62.57
65396;HTU21D;52004;45.136;39.010;2023-05-14T01:23:55;13.67;62.67
65396;HTU21D;52004;45.136;39.010;2023-05-14T01:26:21;13.67;62.67
65396;HTU21D;52004;45.136;39.010;2023-05-14T01:28:47;13.64;62.68
65396;HTU21D;52004;45.136;39.010;2023-05-14T01:31:16;13.63;62.70
65396;HTU21D;52004;45.136;39.010;2023-05-14T01:33:43;13.61;62.71
65396;HTU21D;52004;45.136;39.010;2023-05-14T01:36:10;13.59;62.75
65396;HTU21D;52004;45.136;39.010;2023-05-14T01:38:36;13.56;62.78
65396;HTU21D;52004;45.136;39.010;2023-05-14T01:41:02;13.55;62.78
65396;HTU21D;52004;45.136;39.010;2023-05-14T01:43:29;13.52;62.82
65396;HTU21D;52004;45.136;39.010;2023-05-14T01:45:55;13.51;62.86
65396;HTU21D;52004;45.136;39.010;2023-05-14T01:48:21;13.49;62.89
65396;HTU21D;52004;45.136;39.010;2023-05-14T01:50:47;13.48;62.92
65396;HTU21D;52004;45.136;39.010;2023-05-14T01:53:13;13.46;62.93
65396;HTU21D;52004;45.136;39.010;2023-05-14T01:55:39;13.45;62.96
65396;HTU21D;52004;45.136;39.010;2023-05-14T01:58:05;13.43;62.98
65396;HTU21D;52004;45.136;39.010;2023-05-14T02:00:31;13.43;62.98
65396;HTU21D;52004;45.136;39.010;2023-05-14T02:02:57;13.43;63.00
65396;HTU21D;52004;45.136;39.010;2023-05-14T02:05:23;13.43;62.99
65396;HTU21D;52004;45.136;39.010;2023-05-14T02:07:49;13.41;63.01
65396;HTU21D;52004;45.136;39.010;2023-05-14T02:10:15;13.43;63.02
65396;HTU21D;52004;45.136;39.010;2023-05-14T02:12:41;13.41;63.03
65396;HTU21D;52004;45.136;39.010;2023-05-14T02:15:07;13.41;63.03
65396;HTU21D;52004;45.136;39.010;2023-05-14T02:17:35;13.41;63.05
65396;HTU21D;52004;45.136;39.010;2023-05-14T02:20:01;13.38;63.08
65396;HTU21D;52004;45.136;39.010;2023-05-14T02:22:39;13.35;63.18
65396;HTU21D;52004;45.136;39.010;2023-05-14T02:25:09;13.33;63.23
65396;HTU21D;52004;45.136;39.010;2023-05-14T02:27:35;13.31;63.28
65396;HTU21D;52004;45.136;39.010;2023-05-14T02:30:02;13.30;63.34
65396;HTU21D;52004;45.136;39.010;2023-05-14T02:32:28;13.29;63.37
65396;HTU21D;52004;45.136;39.010;2023-05-14T02:34:54;13.26;63.44
65396;HTU21D;52004;45.136;39.010;2023-05-14T02:37:20;13.29;63.50
65396;HTU21D;52004;45.136;39.010;2023-05-14T02:39:46;13.30;63.51
65396;HTU21D;52004;45.136;39.010;2023-05-14T02:42:14;13.34;63.56
65396;HTU21D;52004;45.136;39.010;2023-05-14T02:44:40;13.37;63.53
65396;HTU21D;52004;45.136;39.010;2023-05-14T02:47:06;13.40;63.52
65396;HTU21D;52004;45.136;39.010;2023-05-14T02:49:32;13.43;63.51
65396;HTU21D;52004;45.136;39.010;2023-05-14T02:51:58;13.45;63.52
65396;HTU21D;52004;45.136;39.010;2023-05-14T02:54:25;13.46;63.56
65396;HTU21D;52004;45.136;39.010;2023-05-14T02:56:51;13.48;63.61
65396;HTU21D;52004;45.136;39.010;2023-05-14T02:59:17;13.52;63.66
65396;HTU21D;52004;45.136;39.010;2023-05-14T03:01:43;13.55;63.66
65396;HTU21D;52004;45.136;39.010;2023-05-14T03:04:09;13.61;63.66
65396;HTU21D;52004;45.136;39.010;2023-05-14T03:06:35;13.67;63.67
65396;HTU21D;52004;45.136;39.010;2023-05-14T03:09:00;13.73;63.64
65396;HTU21D;52004;45.136;39.010;2023-05-14T03:11:26;13.79;63.63
65396;HTU21D;52004;45.136;39.010;2023-05-14T03:13:52;13.86;63.62
65396;HTU21D;52004;45.136;39.010;2023-05-14T03:16:18;13.92;63.57
65396;HTU21D;52004;45.136;39.010;2023-05-14T03:18:44;13.99;63.56
65396;HTU21D;52004;45.136;39.010;2023-05-14T03:21:10;14.05;63.53
65396;HTU21D;52004;45.136;39.010;2023-05-14T03:23:35;14.11;63.51
65396;HTU21D;52004;45.136;39.010;2023-05-14T03:26:01;0.00;63.45
65396;HTU21D;52004;45.136;39.010;2023-05-14T03:28:28;14.23;63.43
65396;HTU21D;52004;45.136;39.010;2023-05-14T03:30:54;0.00;63.47
65396;HTU21D;52004;45.136;39.010;2023-05-14T03:33:20;14.33;63.44
65396;HTU21D;52004;45.136;39.010;2023-05-14T03:35:46;14.38;63.43
65396;HTU21D;52004;45.136;39.010;2023-05-14T03:38:11;14.44;63.49
65396;HTU21D;52004;45.136;39.010;2023-05-14T03:40:37;14.49;63.47
65396;HTU21D;52004;45.136;39.010;2023-05-14T03:43:03;14.55;63.48
65396;HTU21D;52004;45.136;39.010;2023-05-14T03:45:29;14.59;63.48
65396;HTU21D;52004;45.136;39.010;2023-05-14T03:47:57;14.65;63.44
65396;HTU21D;52004;45.136;39.010;2023-05-14T03:50:23;14.69;63.48
65396;HTU21D;52004;45.136;39.010;2023-05-14T03:52:50;14.72;63.50
65396;HTU21D;52004;45.136;39.010;2023-05-14T03:55:19;14.79;63.49
65396;HTU21D;52004;45.136;39.010;2023-05-14T03:57:49;14.83;63.42
65396;HTU21D;52004;45.136;39.010;2023-05-14T04:00:15;14.87;63.44
65396;HTU21D;52004;45.136;39.010;2023-05-14T04:02:44;14.93;63.45
65396;HTU21D;52004;45.136;39.010;2023-05-14T04:05:10;14.95;63.43
65396;HTU21D;52004;45.136;39.010;2023-05-14T04:07:36;14.99;63.46
65396;HTU21D;52004;45.136;39.010;2023-05-14T04:10:02;15.06;63.50
65396;HTU21D;52004;45.136;39.010;2023-05-14T04:12:28;15.11;63.50
65396;HTU21D;52004;45.136;39.010;2023-05-14T04:14:55;15.17;63.53
65396;HTU21D;52004;45.136;39.010;2023-05-14T04:17:21;15.26;63.47
65396;HTU21D;52004;45.136;39.010;2023-05-14T04:19:47;15.31;63.44
65396;HTU21D;52004;45.136;39.010;2023-05-14T04:22:13;15.39;63.46
65396;HTU21D;52004;45.136;39.010;2023-05-14T04:24:39;15.45;63.40
65396;HTU21D;52004;45.136;39.010;2023-05-14T04:27:05;15.51;63.36
65396;HTU21D;52004;45.136;39.010;2023-05-14T04:29:31;15.54;63.37
65396;HTU21D;52004;45.136;39.010;2023-05-14T04:31:57;15.60;63.40
65396;HTU21D;52004;45.136;39.010;2023-05-14T04:34:23;15.69;63.40
65396;HTU21D;52004;45.136;39.010;2023-05-14T04:36:51;15.75;63.34
65396;HTU21D;52004;45.136;39.010;2023-05-14T04:39:17;15.81;63.31
65396;HTU21D;52004;45.136;39.010;2023-05-14T04:41:43;15.86;63.32
65396;HTU21D;52004;45.136;39.010;2023-05-14T04:44:11;15.92;63.28
65396;HTU21D;52004;45.136;39.010;2023-05-14T04:46:37;16.00;63.26
65396;HTU21D;52004;45.136;39.010;2023-05-14T04:49:02;16.07;63.24
65396;HTU21D;52004;45.136;39.010;2023-05-14T04:51:28;16.12;63.19
65396;HTU21D;52004;45.136;39.010;2023-05-14T04:53:54;16.15;63.15
65396;HTU21D;52004;45.136;39.010;2023-05-14T04:56:20;16.17;63.12
65396;HTU21D;52004;45.136;39.010;2023-05-14T04:58:46;16.19;63.12
65396;HTU21D;52004;45.136;39.010;2023-05-14T05:01:12;16.20;63.11
65396;HTU21D;52004;45.136;39.010;2023-05-14T05:03:38;16.22;63.12
65396;HTU21D;52004;45.136;39.010;2023-05-14T05:06:04;16.27;63.17
65396;HTU21D;52004;45.136;39.010;2023-05-14T05:08:30;16.31;63.09
65396;HTU21D;52004;45.136;39.010;2023-05-14T05:10:56;16.31;63.09
65396;HTU21D;52004;45.136;39.010;2023-05-14T05:13:21;16.36;63.11
65396;HTU21D;52004;45.136;39.010;2023-05-14T05:15:47;16.41;63.10
65396;HTU21D;52004;45.136;39.010;2023-05-14T05:18:13;16.44;63.08
65396;HTU21D;52004;45.136;39.010;2023-05-14T05:20:39;16.48;63.08
65396;HTU21D;52004;45.136;39.010;2023-05-14T05:23:05;16.51;63.00
65396;HTU21D;52004;45.136;39.010;2023-05-14T05:25:31;16.54;62.98
65396;HTU21D;52004;45.136;39.010;2023-05-14T05:27:57;16.56;62.98
65396;HTU21D;52004;45.136;39.010;2023-05-14T05:30:23;16.58;62.98
65396;HTU21D;52004;45.136;39.010;2023-05-14T05:32:49;16.61;62.98
65396;HTU21D;52004;45.136;39.010;2023-05-14T05:35:15;16.64;62.98
65396;HTU21D;52004;45.136;39.010;2023-05-14T05:37:41;16.69;62.98
65396;HTU21D;52004;45.136;39.010;2023-05-14T05:40:07;16.74;63.02
65396;HTU21D;52004;45.136;39.010;2023-05-14T05:42:34;16.79;62.98
65396;HTU21D;52004;45.136;39.010;2023-05-14T05:45:00;16.82;62.95
65396;HTU21D;52004;45.136;39.010;2023-05-14T05:47:26;16.86;62.94
65396;HTU21D;52004;45.136;39.010;2023-05-14T05:49:52;16.88;62.98
65396;HTU21D;52004;45.136;39.010;2023-05-14T05:52:18;16.94;62.98
65396;HTU21D;52004;45.136;39.010;2023-05-14T05:54:44;17.00;62.96
65396;HTU21D;52004;45.136;39.010;2023-05-14T05:57:10;17.05;62.95
65396;HTU21D;52004;45.136;39.010;2023-05-14T05:59:36;17.10;62.93
65396;HTU21D;52004;45.136;39.010;2023-05-14T06:02:02;17.17;62.91
65396;HTU21D;52004;45.136;39.010;2023-05-14T06:04:28;17.20;62.92
65396;HTU21D;52004;45.136;39.010;2023-05-14T06:06:54;17.25;62.86
65396;HTU21D;52004;45.136;39.010;2023-05-14T06:09:20;17.30;62.86
65396;HTU21D;52004;45.136;39.010;2023-05-14T06:11:46;17.32;62.76
65396;HTU21D;52004;45.136;39.010;2023-05-14T06:14:12;17.34;62.78
65396;HTU21D;52004;45.136;39.010;2023-05-14T06:16:38;17.36;62.76
65396;HTU21D;52004;45.136;39.010;2023-05-14T06:19:04;17.39;62.82
65396;HTU21D;52004;45.136;39.010;2023-05-14T06:21:30;17.46;62.82
65396;HTU21D;52004;45.136;39.010;2023-05-14T06:23:56;17.50;62.80
65396;HTU21D;52004;45.136;39.010;2023-05-14T06:26:22;17.53;62.73
65396;HTU21D;52004;45.136;39.010;2023-05-14T06:28:48;17.56;62.76
65396;HTU21D;52004;45.136;39.010;2023-05-14T06:31:14;17.60;62.79
65396;HTU21D;52004;45.136;39.010;2023-05-14T06:33:40;17.64;62.79
65396;HTU21D;52004;45.136;39.010;2023-05-14T06:36:06;17.67;62.77
65396;HTU21D;52004;45.136;39.010;2023-05-14T06:38:32;17.73;62.83
65396;HTU21D;52004;45.136;39.010;2023-05-14T06:40:58;17.80;62.86
65396;HTU21D;52004;45.136;39.010;2023-05-14T06:43:24;17.87;62.79
65396;HTU21D;52004;45.136;39.010;2023-05-14T06:45:50;17.91;62.76
65396;HTU21D;52004;45.136;39.010;2023-05-14T06:48:16;17.97;62.78
65396;HTU21D;52004;45.136;39.010;2023-05-14T06:50:46;18.04;62.79
65396;HTU21D;52004;45.136;39.010;2023-05-14T06:53:12;18.12;62.72
65396;HTU21D;52004;45.136;39.010;2023-05-14T06:55:38;18.17;62.59
65396;HTU21D;52004;45.136;39.010;2023-05-14T06:58:07;18.21;62.58
65396;HTU21D;52004;45.136;39.010;2023-05-14T07:00:33;18.26;62.65
65396;HTU21D;52004;45.136;39.010;2023-05-14T07:02:59;0.00;62.59
65396;HTU21D;52004;45.136;39.010;2023-05-14T07:05:25;18.37;62.57
65396;HTU21D;52004;45.136;39.010;2023-05-14T07:07:51;18.41;62.55
65396;HTU21D;52004;45.136;39.010;2023-05-14T07:10:17;18.49;62.63
65396;HTU21D;52004;45.136;39.010;2023-05-14T07:12:43;0.00;62.55
65396;HTU21D;52004;45.136;39.010;2023-05-14T07:15:10;18.66;62.58
65396;HTU21D;52004;45.136;39.010;2023-05-14T07:17:38;18.72;62.57
65396;HTU21D;52004;45.136;39.010;2023-05-14T07:20:04;18.81;62.59
65396;HTU21D;52004;45.136;39.010;2023-05-14T07:22:30;18.88;62.48
65396;HTU21D;52004;45.136;39.010;2023-05-14T07:24:56;18.93;62.33
65396;HTU21D;52004;45.136;39.010;2023-05-14T07:27:22;18.95;62.29
65396;HTU21D;52004;45.136;39.010;2023-05-14T07:29:48;18.99;62.37
65396;HTU21D;52004;45.136;39.010;2023-05-14T07:32:14;19.02;62.37
65396;HTU21D;52004;45.136;39.010;2023-05-14T07:34:40;19.10;62.44
65396;HTU21D;52004;45.136;39.010;2023-05-14T07:37:06;19.16;62.40
65396;HTU21D;52004;45.136;39.010;2023-05-14T07:39:32;19.26;62.47
65396;HTU21D;52004;45.136;39.010;2023-05-14T07:41:59;19.33;62.23
65396;HTU21D;52004;45.136;39.010;2023-05-14T07:44:25;19.38;62.17
65396;HTU21D;52004;45.136;39.010;2023-05-14T07:46:51;19.40;62.05
65396;HTU21D;52004;45.136;39.010;2023-05-14T07:49:17;19.41;61.99
65396;HTU21D;52004;45.136;39.010;2023-05-14T07:51:42;19.43;62.00
65396;HTU21D;52004;45.136;39.010;2023-05-14T07:54:08;19.46;61.96
65396;HTU21D;52004;45.136;39.010;2023-05-14T07:56:35;19.48;61.94
65396;HTU21D;52004;45.136;39.010;2023-05-14T07:59:01;19.50;61.91
65396;HTU21D;52004;45.136;39.010;2023-05-14T08:01:27;19.54;61.94
65396;HTU21D;52004;45.136;39.010;2023-05-14T08:03:53;19.59;61.92
65396;HTU21D;52004;45.136;39.010;2023-05-14T08:06:19;19.67;61.94
65396;HTU21D;52004;45.136;39.010;2023-05-14T08:08:46;19.74;61.92
65396;HTU21D;52004;45.136;39.010;2023-05-14T08:11:12;19.80;61.83
65396;HTU21D;52004;45.136;39.010;2023-05-14T08:13:38;19.83;61.70
65396;HTU21D;52004;45.136;39.010;2023-05-14T08:16:04;19.82;61.58
65396;HTU21D;52004;45.136;39.010;2023-05-14T08:18:30;19.82;61.66
65396;HTU21D;52004;45.136;39.010;2023-05-14T08:20:56;19.88;61.72
65396;HTU21D;52004;45.136;39.010;2023-05-14T08:23:22;19.98;61.56
65396;HTU21D;52004;45.136;39.010;2023-05-14T08:25:48;20.06;61.56
65396;HTU21D;52004;45.136;39.010;2023-05-14T08:28:14;20.14;61.53
65396;HTU21D;52004;45.136;39.010;2023-05-14T08:30:40;20.25;61.46
65396;HTU21D;52004;45.136;39.010;2023-05-14T08:33:05;20.36;61.53
65396;HTU21D;52004;45.136;39.010;2023-05-14T08:35:31;20.53;61.53
65396;HTU21D;52004;45.136;39.010;2023-05-14T08:37:57;20.66;61.41
65396;HTU21D;52004;45.136;39.010;2023-05-14T08:40:23;20.77;61.28
65396;HTU21D;52004;45.136;39.010;2023-05-14T08:42:50;20.85;61.04
65396;HTU21D;52004;45.136;39.010;2023-05-14T08:45:17;0.00;60.96
65396;HTU21D;52004;45.136;39.010;2023-05-14T08:47:45;20.88;60.89
65396;HTU21D;52004;45.136;39.010;2023-05-14T08:50:12;20.87;60.68
65396;HTU21D;52004;45.136;39.010;2023-05-14T08:52:38;20.86;60.84
65396;HTU21D;52004;45.136;39.010;2023-05-14T08:55:04;20.94;60.94
65396;HTU21D;52004;45.136;39.010;2023-05-14T08:57:31;21.04;60.80
65396;HTU21D;52004;45.136;39.010;2023-05-14T08:59:57;21.16;60.77
65396;HTU21D;52004;45.136;39.010;2023-05-14T09:02:24;0.00;60.69
65396;HTU21D;52004;45.136;39.010;2023-05-14T09:04:53;21.37;60.64
65396;HTU21D;52004;45.136;39.010;2023-05-14T09:07:20;21.54;60.70
65396;HTU21D;52004;45.136;39.010;2023-05-14T09:09:46;21.73;60.58
65396;HTU21D;52004;45.136;39.010;2023-05-14T09:12:12;21.90;60.55
65396;HTU21D;52004;45.136;39.010;2023-05-14T09:14:38;22.02;60.22
65396;HTU21D;52004;45.136;39.010;2023-05-14T09:17:03;22.10;60.10
65396;HTU21D;52004;45.136;39.010;2023-05-14T09:19:29;22.16;59.85
65396;HTU21D;52004;45.136;39.010;2023-05-14T09:21:56;22.20;59.97
65396;HTU21D;52004;45.136;39.010;2023-05-14T09:24:24;0.00;59.99
65396;HTU21D;52004;45.136;39.010;2023-05-14T09:26:55;22.49;60.01
65396;HTU21D;52004;45.136;39.010;2023-05-14T09:29:24;22.69;59.96
65396;HTU21D;52004;45.136;39.010;2023-05-14T09:31:50;22.90;59.88
65396;HTU21D;52004;45.136;39.010;2023-05-14T09:34:26;23.03;59.63
65396;HTU21D;52004;45.136;39.010;2023-05-14T09:36:59;23.12;59.61
65396;HTU21D;52004;45.136;39.010;2023-05-14T09:39:26;0.00;59.48
65396;HTU21D;52004;45.136;39.010;2023-05-14T09:41:53;23.29;59.33
65396;HTU21D;52004;45.136;39.010;2023-05-14T09:44:20;23.31;59.31
65396;HTU21D;52004;45.136;39.010;2023-05-14T09:46:47;23.32;59.19
65396;HTU21D;52004;45.136;39.010;2023-05-14T09:49:13;23.30;59.10
65396;HTU21D;52004;45.136;39.010;2023-05-14T09:51:39;23.28;59.14
65396;HTU21D;52004;45.136;39.010;2023-05-14T09:54:05;23.27;59.25
65396;HTU21D;52004;45.136;39.010;2023-05-14T09:56:32;23.30;59.26
65396;HTU21D;52004;45.136;39.010;2023-05-14T09:58:58;0.00;59.32
65396;HTU21D;52004;45.136;39.010;2023-05-14T10:01:24;23.38;58.86
65396;HTU21D;52004;45.136;39.010;2023-05-14T10:03:51;23.27;58.70
65396;HTU21D;52004;45.136;39.010;2023-05-14T10:06:18;23.14;58.52
65396;HTU21D;52004;45.136;39.010;2023-05-14T10:08:45;23.01;58.61
65396;HTU21D;52004;45.136;39.010;2023-05-14T10:15:03;22.97;58.41
65396;HTU21D;52004;45.136;39.010;2023-05-14T10:17:32;22.92;58.41
65396;HTU21D;52004;45.136;39.010;2023-05-14T10:19:59;22.88;58.35
65396;HTU21D;52004;45.136;39.010;2023-05-14T10:22:30;22.84;58.29
65396;HTU21D;52004;45.136;39.010;2023-05-14T10:25:11;22.80;58.25
65396;HTU21D;52004;45.136;39.010;2023-05-14T10:27:38;0.00;58.06
65396;HTU21D;52004;45.136;39.010;2023-05-14T10:30:05;22.63;58.03
65396;HTU21D;52004;45.136;39.010;2023-05-14T10:33:13;0.00;58.05
65396;HTU21D;52004;45.136;39.010;2023-05-14T10:38:33;22.61;58.24
65396;HTU21D;52004;45.136;39.010;2023-05-14T10:41:03;0.00;58.24
65396;HTU21D;52004;45.136;39.010;2023-05-14T10:46:36;0.00;58.20
65396;HTU21D;52004;45.136;39.010;2023-05-14T10:49:29;23.03;58.08
65396;HTU21D;52004;45.136;39.010;2023-05-14T10:58:45;23.28;57.71
65396;HTU21D;52004;45.136;39.010;2023-05-14T11:01:15;23.26;57.57
65396;HTU21D;52004;45.136;39.010;2023-05-14T11:03:58;23.32;57.56
65396;HTU21D;52004;45.136;39.010;2023-05-14T11:06:58;23.40;57.54
65396;HTU21D;52004;45.136;39.010;2023-05-14T11:09:26;23.49;57.55
65396;HTU21D;52004;45.136;39.010;2023-05-14T11:11:52;23.59;57.55
65396;HTU21D;52004;45.136;39.010;2023-05-14T11:17:14;23.74;57.32
65396;HTU21D;52004;45.136;39.010;2023-05-14T11:19:41;23.81;57.36
65396;HTU21D;52004;45.136;39.010;2023-05-14T11:22:07;23.94;57.33
65396;HTU21D;52004;45.136;39.010;2023-05-14T11:24:33;24.02;57.32
65396;HTU21D;52004;45.136;39.010;2023-05-14T11:26:59;24.14;57.28
65396;HTU21D;52004;45.136;39.010;2023-05-14T11:29:25;24.21;57.22
65396;HTU21D;52004;45.136;39.010;2023-05-14T11:31:51;24.27;57.15
65396;HTU21D;52004;45.136;39.010;2023-05-14T11:34:16;24.31;57.06
65396;HTU21D;52004;45.136;39.010;2023-05-14T11:36:42;24.35;57.02
65396;HTU21D;52004;45.136;39.010;2023-05-14T11:39:16;24.38;56.90
65396;HTU21D;52004;45.136;39.010;2023-05-14T11:41:44;24.39;56.76
65396;HTU21D;52004;45.136;39.010;2023-05-14T11:44:10;0.00;56.74
65396;HTU21D;52004;45.136;39.010;2023-05-14T11:46:36;24.33;56.71
65396;HTU21D;52004;45.136;39.010;2023-05-14T11:49:05;24.33;56.68
65396;HTU21D;52004;45.136;39.010;2023-05-14T11:51:31;24.32;56.65
65396;HTU21D;52004;45.136;39.010;2023-05-14T11:53:57;24.32;56.58
65396;HTU21D;52004;45.136;39.010;2023-05-14T11:56:23;24.29;56.58
65396;HTU21D;52004;45.136;39.010;2023-05-14T11:58:54;24.28;56.58
65396;HTU21D;52004;45.136;39.010;2023-05-14T12:01:20;24.26;56.45
65396;HTU21D;52004;45.136;39.010;2023-05-14T12:03:46;24.24;56.45
65396;HTU21D;52004;45.136;39.010;2023-05-14T12:06:12;0.00;56.51
65396;HTU21D;52004;45.136;39.010;2023-05-14T12:08:38;0.00;56.26
65396;HTU21D;52004;45.136;39.010;2023-05-14T12:11:04;24.16;56.17
65396;HTU21D;52004;45.136;39.010;2023-05-14T12:13:30;24.12;56.32
65396;HTU21D;52004;45.136;39.010;2023-05-14T12:15:57;0.00;56.32
65396;HTU21D;52004;45.136;39.010;2023-05-14T12:18:27;24.17;56.30
65396;HTU21D;52004;45.136;39.010;2023-05-14T12:20:53;0.00;56.28
65396;HTU21D;52004;45.136;39.010;2023-05-14T12:23:27;24.25;56.21
65396;HTU21D;52004;45.136;39.010;2023-05-14T12:25:54;24.27;56.16
65396;HTU21D;52004;45.136;39.010;2023-05-14T12:28:21;24.28;56.18
65396;HTU21D;52004;45.136;39.010;2023-05-14T12:30:47;24.30;56.07
65396;HTU21D;52004;45.136;39.010;2023-05-14T12:33:14;0.00;55.86
65396;HTU21D;52004;45.136;39.010;2023-05-14T12:35:40;24.17;55.88
65396;HTU21D;52004;45.136;39.010;2023-05-14T12:38:07;24.18;56.04
65396;HTU21D;52004;45.136;39.010;2023-05-14T12:40:32;24.23;55.98
65396;HTU21D;52004;45.136;39.010;2023-05-14T12:42:58;24.27;55.97
65396;HTU21D;52004;45.136;39.010;2023-05-14T12:45:24;24.32;55.94
65396;HTU21D;52004;45.136;39.010;2023-05-14T12:47:50;24.35;55.84
65396;HTU21D;52004;45.136;39.010;2023-05-14T12:50:16;24.34;55.70
65396;HTU21D;52004;45.136;39.010;2023-05-14T12:52:42;24.32;55.68
65396;HTU21D;52004;45.136;39.010;2023-05-14T12:55:08;24.30;55.68
65396;HTU21D;52004;45.136;39.010;2023-05-14T12:57:34;24.30;55.68
65396;HTU21D;52004;45.136;39.010;2023-05-14T13:00:01;24.29;55.62
65396;HTU21D;52004;45.136;39.010;2023-05-14T13:02:31;24.27;55.60
65396;HTU21D;52004;45.136;39.010;2023-05-14T13:04:57;24.26;55.51
65396;HTU21D;52004;45.136;39.010;2023-05-14T13:07:23;24.21;55.53
65396;HTU21D;52004;45.136;39.010;2023-05-14T13:09:49;24.20;55.50
65396;HTU21D;52004;45.136;39.010;2023-05-14T13:12:15;24.16;55.49
65396;HTU21D;52004;45.136;39.010;2023-05-14T13:14:41;24.14;55.48
65396;HTU21D;52004;45.136;39.010;2023-05-14T13:17:07;24.11;55.42
65396;HTU21D;52004;45.136;39.010;2023-05-14T13:19:33;0.00;55.37
65396;HTU21D;52004;45.136;39.010;2023-05-14T13:21:58;24.04;55.40
65396;HTU21D;52004;45.136;39.010;2023-05-14T13:24:25;24.04;55.45
65396;HTU21D;52004;45.136;39.010;2023-05-14T13:26:51;24.05;55.40
65396;HTU21D;52004;45.136;39.010;2023-05-14T13:29:17;24.06;55.33
65396;HTU21D;52004;45.136;39.010;2023-05-14T13:31:42;24.05;55.30
65396;HTU21D;52004;45.136;39.010;2023-05-14T13:34:08;24.03;55.21
65396;HTU21D;52004;45.136;39.010;2023-05-14T13:36:35;24.01;55.11
65396;HTU21D;52004;45.136;39.010;2023-05-14T13:39:05;23.94;55.02
65396;HTU21D;52004;45.136;39.010;2023-05-14T13:41:30;23.90;55.11
65396;HTU21D;52004;45.136;39.010;2023-05-14T13:44:00;23.89;55.10
65396;HTU21D;52004;45.136;39.010;2023-05-14T13:46:29;23.86;55.09
65396;HTU21D;52004;45.136;39.010;2023-05-14T13:48:54;23.83;55.07
65396;HTU21D;52004;45.136;39.010;2023-05-14T13:51:23;23.82;55.07
65396;HTU21D;52004;45.136;39.010;2023-05-14T13:53:49;23.82;55.06
65396;HTU21D;52004;45.136;39.010;2023-05-14T13:56:15;23.83;55.04
65396;HTU21D;52004;45.136;39.010;2023-05-14T13:58:41;23.81;55.02
65396;HTU21D;52004;45.136;39.010;2023-05-14T14:01:07;23.76;54.82
65396;HTU21D;52004;45.136;39.010;2023-05-14T14:03:33;23.69;54.81
65396;HTU21D;52004;45.136;39.010;2023-05-14T14:05:59;23.64;54.76
65396;HTU21D;52004;45.136;39.010;2023-05-14T14:08:25;23.55;54.72
65396;HTU21D;52004;45.136;39.010;2023-05-14T14:10:51;23.49;54.71
65396;HTU21D;52004;45.136;39.010;2023-05-14T14:13:19;23.39;54.74
65396;HTU21D;52004;45.136;39.010;2023-05-14T14:15:47;23.27;54.69
65396;HTU21D;52004;45.136;39.010;2023-05-14T14:18:13;23.12;54.75
65396;HTU21D;52004;45.136;39.010;2023-05-14T14:20:38;23.00;54.85
65396;HTU21D;52004;45.136;39.010;2023-05-14T14:23:04;22.95;54.91
65396;HTU21D;52004;45.136;39.010;2023-05-14T14:25:30;22.87;54.91
65396;HTU21D;52004;45.136;39.010;2023-05-14T14:27:56;22.83;54.90
65396;HTU21D;52004;45.136;39.010;2023-05-14T14:30:22;22.79;54.92
65396;HTU21D;52004;45.136;39.010;2023-05-14T14:32:48;22.73;54.91
65396;HTU21D;52004;45.136;39.010;2023-05-14T14:35:15;22.60;54.75
65396;HTU21D;52004;45.136;39.010;2023-05-14T14:37:41;0.00;54.64
65396;HTU21D;52004;45.136;39.010;2023-05-14T14:40:10;21.87;54.91
65396;HTU21D;52004;45.136;39.010;2023-05-14T14:42:36;21.28;55.25
65396;HTU21D;52004;45.136;39.010;2023-05-14T14:45:05;20.64;55.81
65396;HTU21D;52004;45.136;39.010;2023-05-14T14:47:31;19.96;56.59
65396;HTU21D;52004;45.136;39.010;2023-05-14T14:49:57;19.41;57.15
65396;HTU21D;52004;45.136;39.010;2023-05-14T14:52:24;19.01;57.51
65396;HTU21D;52004;45.136;39.010;2023-05-14T14:54:50;18.72;57.79
65396;HTU21D;52004;45.136;39.010;2023-05-14T14:57:16;18.50;57.96
65396;HTU21D;52004;45.136;39.010;2023-05-14T14:59:42;18.32;58.04
65396;HTU21D;52004;45.136;39.010;2023-05-14T15:02:08;0.00;58.06
65396;HTU21D;52004;45.136;39.010;2023-05-14T15:04:34;18.05;58.16
65396;HTU21D;52004;45.136;39.010;2023-05-14T15:07:01;17.91;58.19
65396;HTU21D;52004;45.136;39.010;2023-05-14T15:09:28;17.81;58.29
65396;HTU21D;52004;45.136;39.010;2023-05-14T15:11:54;17.77;58.25
65396;HTU21D;52004;45.136;39.010;2023-05-14T15:14:19;17.68;58.28
65396;HTU21D;52004;45.136;39.010;2023-05-14T15:16:46;17.63;58.35
65396;HTU21D;52004;45.136;39.010;2023-05-14T15:19:12;17.55;58.43
65396;HTU21D;52004;45.136;39.010;2023-05-14T15:21:38;17.52;58.36
65396;HTU21D;52004;45.136;39.010;2023-05-14T15:24:04;17.33;58.44
65396;HTU21D;52004;45.136;39.010;2023-05-14T15:26:31;0.00;58.70
65396;HTU21D;52004;45.136;39.010;2023-05-14T15:28:57;17.04;58.82